createdAt,value
2019-05-17T00:01:16.661Z,278.90
2019-05-17T00:04:07.218Z,269.87
2019-05-17T00:06:57.147Z,259.15
2019-05-17T00:09:47.701Z,250.18
2019-05-17T00:12:36.761Z,258.73
2019-05-17T00:15:27.323Z,270.40
2019-05-17T00:18:17.113Z,237.93
2019-05-17T00:21:07.771Z,266.05
2019-05-17T00:23:57.229Z,231.63
2019-05-17T00:26:46.755Z,230.90
2019-05-17T00:29:37.322Z,219.80
2019-05-17T00:32:27.427Z,232.30
2019-05-17T00:35:17.882Z,224.42
2019-05-17T00:38:06.585Z,205.47
2019-05-17T00:40:56.511Z,211.05
2019-05-17T00:43:46.211Z,203.60
2019-05-17T00:46:37.109Z,200.85
2019-05-17T00:49:26.405Z,209.07
2019-05-17T00:52:16.819Z,194.15
2019-05-17T00:55:07.088Z,195.95
2019-05-17T00:57:56.536Z,197.22
2019-05-17T01:00:47.699Z,218.40
2019-05-17T01:03:36.322Z,197.80
2019-05-17T01:06:27.354Z,187.25
2019-05-17T01:09:17.013Z,178.47
2019-05-17T01:12:07.069Z,187.53
2019-05-17T01:14:55.478Z,182.90
2019-05-17T01:17:43.730Z,205.32
2019-05-17T01:20:31.959Z,176.78
2019-05-17T01:23:20.579Z,164.50
2019-05-17T01:26:09.093Z,159.72
2019-05-17T01:28:57.443Z,171.40
2019-05-17T01:31:46.674Z,158.45
2019-05-17T01:34:37.426Z,162.72
2019-05-17T01:37:27.549Z,159.87
2019-05-17T01:40:17.467Z,151.72
2019-05-17T01:43:07.557Z,154.10
2019-05-17T01:45:57.287Z,177.70
2019-05-17T01:48:47.138Z,148.35
2019-05-17T01:51:37.084Z,156.50
2019-05-17T01:54:26.911Z,146.60
2019-05-17T01:57:16.886Z,145.07
2019-05-17T02:00:08.182Z,145.35
2019-05-17T02:02:57.817Z,136.10
2019-05-17T02:05:47.335Z,143.20
2019-05-17T02:08:37.215Z,144.37
2019-05-17T02:11:26.919Z,134.03
2019-05-17T02:14:16.517Z,126.05
2019-05-17T02:17:06.829Z,128.78
2019-05-17T02:19:57.182Z,126.90
2019-05-17T02:22:47.243Z,126.55
2019-05-17T02:25:36.948Z,129.15
2019-05-17T02:28:25.436Z,129.45
2019-05-17T02:31:14.038Z,150.35
2019-05-17T02:34:03.201Z,123.40
2019-05-17T02:36:53.364Z,121.42
2019-05-17T02:39:56.601Z,134.55
2019-05-17T02:42:33.414Z,110.17
2019-05-17T02:45:23.453Z,110.50
2019-05-17T02:48:13.353Z,109.15
2019-05-17T02:51:03.578Z,108.03
2019-05-17T02:53:52.779Z,108.45
2019-05-17T02:56:43.659Z,105.05
2019-05-17T02:59:33.039Z,105.50
2019-05-17T03:02:27.556Z,108.75
2019-05-17T03:05:13.893Z,100.90
2019-05-17T03:08:04.152Z,99.90
2019-05-17T03:10:53.477Z,108.35
2019-05-17T03:13:43.426Z,114.00
2019-05-17T03:16:33.889Z,101.22
2019-05-17T03:19:23.562Z,99.80
2019-05-17T03:22:13.291Z,96.35
2019-05-17T03:25:03.159Z,103.75
2019-05-17T03:27:53.581Z,95.40
2019-05-17T03:30:46.782Z,120.95
2019-05-17T03:33:35.835Z,100.60
2019-05-17T03:36:26.260Z,91.15
2019-05-17T03:39:13.139Z,89.17
2019-05-17T03:42:02.745Z,91.92
2019-05-17T03:44:53.068Z,89.10
2019-05-17T03:47:44.461Z,116.62
2019-05-17T03:50:33.523Z,91.57
2019-05-17T03:53:22.904Z,119.47
2019-05-17T03:56:13.311Z,86.32
2019-05-17T03:59:03.675Z,85.07
2019-05-17T04:01:52.688Z,81.22
2019-05-17T04:04:42.885Z,84.22
2019-05-17T04:07:32.869Z,127.07
2019-05-17T04:10:22.873Z,84.28
2019-05-17T04:13:23.755Z,75.20
2019-05-17T04:16:14.109Z,76.17
2019-05-17T04:19:03.520Z,73.87
2019-05-17T04:21:53.646Z,78.52
2019-05-17T04:24:43.774Z,77.10
2019-05-17T04:27:34.084Z,71.77
2019-05-17T04:30:23.295Z,73.62
2019-05-17T04:33:12.850Z,87.90
2019-05-17T04:36:02.704Z,75.00
2019-05-17T04:38:52.626Z,73.07
2019-05-17T04:41:49.240Z,71.53
2019-05-17T04:44:32.283Z,76.95
2019-05-17T04:47:22.937Z,103.90
2019-05-17T04:50:13.395Z,78.85
2019-05-17T04:53:02.649Z,91.37
2019-05-17T04:55:53.927Z,67.27
2019-05-17T04:58:42.991Z,72.45
2019-05-17T05:01:32.915Z,73.10
2019-05-17T05:04:22.577Z,74.30
2019-05-17T05:07:13.589Z,65.22
2019-05-17T05:10:03.061Z,65.78
2019-05-17T05:12:52.656Z,80.90
2019-05-17T05:15:43.951Z,65.78
2019-05-17T05:18:32.824Z,68.65
2019-05-17T05:21:23.019Z,64.92
2019-05-17T05:24:11.979Z,66.82
2019-05-17T05:27:02.536Z,64.05
2019-05-17T05:29:52.174Z,67.53
2019-05-17T05:32:42.678Z,71.82
2019-05-17T05:35:31.793Z,63.08
2019-05-17T05:38:21.669Z,86.30
2019-05-17T05:41:12.076Z,62.70
2019-05-17T05:44:01.824Z,77.45
2019-05-17T05:46:51.495Z,59.42
2019-05-17T05:49:42.596Z,65.95
2019-05-17T05:52:32.416Z,60.52
2019-05-17T05:55:23.417Z,61.35
2019-05-17T05:58:12.053Z,66.15
2019-05-17T06:01:02.386Z,94.45
2019-05-17T06:03:52.044Z,82.95
2019-05-17T06:06:41.933Z,122.00
2019-05-17T06:09:31.786Z,132.03
2019-05-17T06:12:23.882Z,148.62
2019-05-17T06:15:22.615Z,139.68
2019-05-17T06:18:12.200Z,191.05
2019-05-17T06:21:02.972Z,131.87
2019-05-17T06:23:51.667Z,130.07
2019-05-17T06:26:42.166Z,137.92
2019-05-17T06:29:32.601Z,122.95
2019-05-17T06:32:22.829Z,112.55
2019-05-17T06:35:12.629Z,141.60
2019-05-17T06:38:02.053Z,117.03
2019-05-17T06:41:12.507Z,111.47
2019-05-17T06:44:02.722Z,125.92
2019-05-17T06:46:51.921Z,105.17
2019-05-17T06:49:42.219Z,103.70
2019-05-17T06:52:29.586Z,103.72
2019-05-17T06:55:18.098Z,96.42
2019-05-17T06:58:06.471Z,93.37
2019-05-17T07:00:54.868Z,92.80
2019-05-17T07:03:43.450Z,95.97
2019-05-17T07:06:33.335Z,95.97
2019-05-17T07:09:21.530Z,83.87
2019-05-17T07:12:10.523Z,82.57
2019-05-17T07:15:01.126Z,80.67
2019-05-17T07:17:50.409Z,79.60
2019-05-17T07:20:39.546Z,76.65
2019-05-17T07:23:30.263Z,75.35
2019-05-17T07:26:19.725Z,76.25
2019-05-17T07:29:10.063Z,107.05
2019-05-17T07:32:00.341Z,75.35
2019-05-17T07:35:10.407Z,71.22
2019-05-17T07:37:59.530Z,72.65
2019-05-17T07:40:50.151Z,70.85
2019-05-17T07:43:40.298Z,67.95
2019-05-17T07:46:29.438Z,66.67
2019-05-17T07:49:20.046Z,68.97
2019-05-17T07:52:10.350Z,66.40
2019-05-17T07:55:02.388Z,65.83
2019-05-17T07:57:49.562Z,63.58
2019-05-17T08:00:40.028Z,66.70
2019-05-17T08:03:29.872Z,62.58
2019-05-17T08:06:19.864Z,62.00
2019-05-17T08:09:13.381Z,60.98
2019-05-17T08:11:59.570Z,60.40
2019-05-17T08:14:50.122Z,60.60
2019-05-17T08:17:39.664Z,59.03
2019-05-17T08:20:29.840Z,58.52
2019-05-17T08:23:20.153Z,72.08
2019-05-17T08:26:10.493Z,57.62
2019-05-17T08:29:00.759Z,56.40
2019-05-17T08:31:49.773Z,57.15
2019-05-17T08:34:40.084Z,55.38
2019-05-17T08:37:30.176Z,55.52
2019-05-17T08:40:20.124Z,55.88
2019-05-17T08:43:09.997Z,53.10
2019-05-17T08:46:01.654Z,53.13
2019-05-17T08:48:49.512Z,52.38
2019-05-17T08:51:39.687Z,52.67
2019-05-17T08:54:30.302Z,51.58
2019-05-17T08:57:20.430Z,51.35
2019-05-17T09:00:10.633Z,51.58
2019-05-17T09:03:00.025Z,51.05
2019-05-17T09:05:52.749Z,50.52
2019-05-17T09:08:40.546Z,60.43
2019-05-17T09:11:30.251Z,52.25
2019-05-17T09:14:18.724Z,50.43
2019-05-17T09:17:06.909Z,51.15
2019-05-17T09:19:55.375Z,50.95
2019-05-17T09:22:44.136Z,49.08
2019-05-17T09:25:32.559Z,47.90
2019-05-17T09:28:20.909Z,51.05
2019-05-17T09:31:10.359Z,48.92
2019-05-17T09:34:00.268Z,48.35
2019-05-17T09:36:50.142Z,47.67
2019-05-17T09:39:40.180Z,48.15
2019-05-17T09:42:29.992Z,47.65
2019-05-17T09:45:20.217Z,47.23
2019-05-17T09:48:10.237Z,46.55
2019-05-17T09:50:59.900Z,46.37
2019-05-17T09:53:49.589Z,54.23
2019-05-17T09:56:39.483Z,46.10
2019-05-17T09:59:29.821Z,46.77
2019-05-17T10:02:20.175Z,120.35
2019-05-17T10:05:10.324Z,45.90
2019-05-17T10:07:59.883Z,54.75
2019-05-17T10:11:00.971Z,45.43
2019-05-17T10:13:37.354Z,46.45
2019-05-17T10:16:25.569Z,45.83
2019-05-17T10:19:13.735Z,44.80
2019-05-17T10:22:02.085Z,45.90
2019-05-17T10:24:50.698Z,45.33
2019-05-17T10:27:40.675Z,44.65
2019-05-17T10:30:29.979Z,44.27
2019-05-17T10:33:20.038Z,44.05
2019-05-17T10:36:09.947Z,44.45
2019-05-17T10:38:59.226Z,59.60
2019-05-17T10:41:50.042Z,45.05
2019-05-17T10:44:46.559Z,42.98
2019-05-17T10:47:30.164Z,51.65
2019-05-17T10:50:20.561Z,43.42
2019-05-17T10:53:09.957Z,43.58
2019-05-17T10:56:00.720Z,43.15
2019-05-17T10:58:49.326Z,43.70
2019-05-17T11:01:37.911Z,42.73
2019-05-17T11:04:26.616Z,44.18
2019-05-17T11:07:14.828Z,43.63
2019-05-17T11:10:03.634Z,43.38
2019-05-17T11:12:52.149Z,42.62
2019-05-17T11:15:40.724Z,42.38
2019-05-17T11:18:29.200Z,42.83
2019-05-17T11:21:17.719Z,42.73
2019-05-17T11:24:05.996Z,52.90
2019-05-17T11:26:54.328Z,42.62
2019-05-17T11:29:42.855Z,42.83
2019-05-17T11:32:31.088Z,44.20
2019-05-17T11:35:19.658Z,44.13
2019-05-17T11:38:08.019Z,42.20
2019-05-17T11:40:56.205Z,43.28
2019-05-17T11:43:44.761Z,44.98
2019-05-17T11:46:36.255Z,42.80
2019-05-17T11:49:23.784Z,42.27
2019-05-17T11:52:12.089Z,43.68
2019-05-17T11:55:00.243Z,41.55
2019-05-17T11:57:48.645Z,43.28
2019-05-17T12:00:36.895Z,44.53
2019-05-17T12:03:25.107Z,43.05
2019-05-17T12:06:13.596Z,41.90
2019-05-17T12:09:02.304Z,44.40
2019-05-17T12:11:51.344Z,42.50
2019-05-17T12:14:39.743Z,42.90
2019-05-17T12:17:28.011Z,42.58
2019-05-17T12:20:16.607Z,42.35
2019-05-17T12:23:04.979Z,41.37
2019-05-17T12:25:53.174Z,41.70
2019-05-17T12:28:41.530Z,41.18
2019-05-17T12:31:29.679Z,41.42
2019-05-17T12:34:18.115Z,40.88
2019-05-17T12:37:06.692Z,41.65
2019-05-17T12:39:54.659Z,40.67
2019-05-17T12:42:43.265Z,41.35
2019-05-17T12:45:31.570Z,46.90
2019-05-17T12:48:20.182Z,43.02
2019-05-17T12:51:09.103Z,39.83
2019-05-17T12:53:58.164Z,40.67
2019-05-17T12:56:47.522Z,44.05
2019-05-17T12:59:35.673Z,41.63
2019-05-17T13:02:23.715Z,42.50
2019-05-17T13:05:12.216Z,44.42
2019-05-17T13:08:00.752Z,42.23
2019-05-17T13:10:48.914Z,41.70
2019-05-17T13:13:37.685Z,41.68
2019-05-17T13:16:25.963Z,40.67
2019-05-17T13:19:14.251Z,40.05
2019-05-17T13:22:02.462Z,41.95
2019-05-17T13:24:50.694Z,39.88
2019-05-17T13:27:39.625Z,40.38
2019-05-17T13:30:28.020Z,40.10
2019-05-17T13:33:16.335Z,39.83
2019-05-17T13:36:04.880Z,39.67
2019-05-17T13:38:53.698Z,40.98
2019-05-17T13:41:41.979Z,41.02
2019-05-17T13:44:30.211Z,40.12
2019-05-17T13:47:18.340Z,47.67
2019-05-17T13:50:06.939Z,59.73
2019-05-17T13:52:55.598Z,49.38
2019-05-17T13:55:44.033Z,44.80
2019-05-17T13:58:32.506Z,44.50
2019-05-17T14:01:21.008Z,57.83
2019-05-17T14:04:09.387Z,49.67
2019-05-17T14:06:57.716Z,75.10
2019-05-17T14:09:46.212Z,54.80
2019-05-17T14:12:35.807Z,75.10
2019-05-17T14:15:24.131Z,48.58
2019-05-17T14:18:12.749Z,56.90
2019-05-17T14:21:01.171Z,57.15
2019-05-17T14:23:49.392Z,44.27
2019-05-17T14:26:38.014Z,47.67
2019-05-17T14:29:26.411Z,44.00
2019-05-17T14:32:15.157Z,46.23
2019-05-17T14:35:03.603Z,45.03
2019-05-17T14:38:11.574Z,49.23
2019-05-17T14:41:06.505Z,59.60
2019-05-17T14:43:50.340Z,53.48
2019-05-17T14:46:38.640Z,50.80
2019-05-17T14:49:27.067Z,71.37
2019-05-17T14:52:16.815Z,47.25
2019-05-17T14:55:05.255Z,44.55
2019-05-17T14:57:53.712Z,47.35
2019-05-17T15:00:41.952Z,47.08
2019-05-17T15:03:30.403Z,47.33
2019-05-17T15:06:18.583Z,53.13
2019-05-17T15:09:11.206Z,46.73
2019-05-17T15:11:57.444Z,53.33
2019-05-17T15:14:45.897Z,65.37
2019-05-17T15:17:35.300Z,46.42
2019-05-17T15:20:24.182Z,52.10
2019-05-17T15:23:13.717Z,54.40
2019-05-17T15:26:02.156Z,48.13
2019-05-17T15:28:50.828Z,55.70
2019-05-17T15:31:39.203Z,56.55
2019-05-17T15:34:27.818Z,48.15
2019-05-17T15:37:16.315Z,82.00
2019-05-17T15:40:05.627Z,62.50
2019-05-17T15:42:54.128Z,58.40
2019-05-17T15:45:43.461Z,59.90
2019-05-17T15:48:31.800Z,53.95
2019-05-17T15:51:20.068Z,46.58
2019-05-17T15:54:08.365Z,51.05
2019-05-17T15:56:56.827Z,54.93
2019-05-17T15:59:45.575Z,47.48
2019-05-17T16:02:34.103Z,51.77
2019-05-17T16:05:22.596Z,51.25
2019-05-17T16:08:11.109Z,54.15
2019-05-17T16:10:59.633Z,53.50
2019-05-17T16:13:47.947Z,42.83
2019-05-17T16:16:36.157Z,66.37
2019-05-17T16:19:24.312Z,53.85
2019-05-17T16:22:12.471Z,59.80
2019-05-17T16:25:00.778Z,55.48
2019-05-17T16:27:48.902Z,58.80
2019-05-17T16:30:37.103Z,46.05
2019-05-17T16:33:25.274Z,46.85
2019-05-17T16:36:13.595Z,56.92
2019-05-17T16:39:02.248Z,59.30
2019-05-17T16:41:52.076Z,65.97
2019-05-17T16:44:40.211Z,49.67
2019-05-17T16:47:28.727Z,57.50
2019-05-17T16:50:17.347Z,64.60
2019-05-17T16:53:06.475Z,44.35
2019-05-17T16:55:55.146Z,52.25
2019-05-17T16:58:43.308Z,69.95
2019-05-17T17:01:31.574Z,55.48
2019-05-17T17:04:20.051Z,44.75
2019-05-17T17:07:08.491Z,50.52
2019-05-17T17:09:56.955Z,49.83
2019-05-17T17:12:45.336Z,45.52
2019-05-17T17:15:33.580Z,73.85
2019-05-17T17:18:22.278Z,55.23
2019-05-17T17:21:10.430Z,50.00
2019-05-17T17:24:18.282Z,43.65
2019-05-17T17:27:06.500Z,53.00
2019-05-17T17:29:54.556Z,63.55
2019-05-17T17:32:42.877Z,50.25
2019-05-17T17:35:31.179Z,56.40
2019-05-17T17:38:19.590Z,61.40
2019-05-17T17:41:08.160Z,46.13
2019-05-17T17:43:58.904Z,44.05
2019-05-17T17:46:46.379Z,48.20
2019-05-17T17:49:34.769Z,47.48
2019-05-17T17:52:23.292Z,61.48
2019-05-17T17:55:11.750Z,53.02
2019-05-17T17:58:00.100Z,44.95
2019-05-17T18:00:49.193Z,48.15
2019-05-17T18:03:37.885Z,43.52
2019-05-17T18:06:26.031Z,44.75
2019-05-17T18:09:26.759Z,42.67
2019-05-17T18:12:14.924Z,51.90
2019-05-17T18:15:06.293Z,58.52
2019-05-17T18:17:53.168Z,51.37
2019-05-17T18:20:41.439Z,49.63
2019-05-17T18:23:29.831Z,51.05
2019-05-17T18:26:18.224Z,50.75
2019-05-17T18:29:08.062Z,48.90
2019-05-17T18:31:57.058Z,55.05
2019-05-17T18:34:45.526Z,44.08
2019-05-17T18:37:35.182Z,46.35
2019-05-17T18:40:23.828Z,49.60
2019-05-17T18:43:11.778Z,62.35
2019-05-17T18:46:01.262Z,43.55
2019-05-17T18:48:49.817Z,52.17
2019-05-17T18:51:38.231Z,58.13
2019-05-17T18:54:26.801Z,50.90
2019-05-17T18:57:15.118Z,51.53
2019-05-17T19:00:03.363Z,53.98
2019-05-17T19:02:52.534Z,44.95
2019-05-17T19:05:41.014Z,50.33
2019-05-17T19:08:29.219Z,50.38
2019-05-17T19:11:17.730Z,55.48
2019-05-17T19:14:06.227Z,65.65
2019-05-17T19:16:54.715Z,44.15
2019-05-17T19:19:43.114Z,46.40
2019-05-17T19:22:31.534Z,65.67
2019-05-17T19:25:19.875Z,56.55
2019-05-17T19:28:08.099Z,45.03
2019-05-17T19:30:57.858Z,47.55
2019-05-17T19:33:46.455Z,44.00
2019-05-17T19:36:34.922Z,55.03
2019-05-17T19:39:23.098Z,70.12
2019-05-17T19:42:11.753Z,47.50
2019-05-17T19:45:01.213Z,49.25
2019-05-17T19:47:50.857Z,60.23
2019-05-17T19:50:39.079Z,51.95
2019-05-17T19:53:28.138Z,50.08
2019-05-17T19:56:16.663Z,45.15
2019-05-17T19:59:05.013Z,43.92
2019-05-17T20:01:53.339Z,44.38
2019-05-17T20:04:41.872Z,60.17
2019-05-17T20:07:38.068Z,53.08
2019-05-17T20:10:20.319Z,63.78
2019-05-17T20:13:08.821Z,44.98
2019-05-17T20:15:57.411Z,56.98
2019-05-17T20:18:46.868Z,80.28
2019-05-17T20:21:35.198Z,60.55
2019-05-17T20:24:23.167Z,82.62
2019-05-17T20:27:11.639Z,66.57
2019-05-17T20:30:00.126Z,42.67
2019-05-17T20:32:48.660Z,39.38
2019-05-17T20:35:37.534Z,50.55
2019-05-17T20:38:25.820Z,40.80
2019-05-17T20:41:14.539Z,41.02
2019-05-17T20:44:02.735Z,41.92
2019-05-17T20:46:51.544Z,41.28
2019-05-17T20:49:39.859Z,40.88
2019-05-17T20:52:28.388Z,41.00
2019-05-17T20:55:17.092Z,42.05
2019-05-17T20:58:05.251Z,42.67
2019-05-17T21:00:54.297Z,41.95
2019-05-17T21:03:42.526Z,40.78
2019-05-17T21:06:30.880Z,40.60
2019-05-17T21:09:19.410Z,41.95
2019-05-17T21:12:07.875Z,40.83
2019-05-17T21:14:56.617Z,41.77
2019-05-17T21:17:45.514Z,40.45
2019-05-17T21:20:35.500Z,39.70
2019-05-17T21:23:24.940Z,41.02
2019-05-17T21:26:13.541Z,42.00
2019-05-17T21:29:02.028Z,43.45
2019-05-17T21:31:50.258Z,47.15
2019-05-17T21:34:38.883Z,41.00
2019-05-17T21:37:27.175Z,41.37
2019-05-17T21:40:15.746Z,40.40
2019-05-17T21:43:04.209Z,39.88
2019-05-17T21:46:03.296Z,40.75
2019-05-17T21:48:45.284Z,41.68
2019-05-17T21:51:33.935Z,41.13
2019-05-17T21:54:22.287Z,40.95
2019-05-17T21:57:10.757Z,40.50
2019-05-17T21:59:59.197Z,40.95
2019-05-17T22:02:48.661Z,42.80
2019-05-17T22:05:36.744Z,40.60
2019-05-17T22:08:24.902Z,40.23
2019-05-17T22:11:13.150Z,40.50
2019-05-17T22:14:02.797Z,42.25
2019-05-17T22:16:51.364Z,40.92
2019-05-17T22:19:39.990Z,43.05
2019-05-17T22:22:28.214Z,41.40
2019-05-17T22:25:16.686Z,41.30
2019-05-17T22:28:05.499Z,41.92
2019-05-17T22:30:54.715Z,40.33
2019-05-17T22:33:43.435Z,41.55
2019-05-17T22:36:31.870Z,41.90
2019-05-17T22:39:20.054Z,41.60
2019-05-17T22:42:08.299Z,48.00
2019-05-17T22:44:56.630Z,41.88
2019-05-17T22:47:45.007Z,41.68
2019-05-17T22:50:33.291Z,41.05
2019-05-17T22:53:21.835Z,40.60
2019-05-17T22:56:10.119Z,40.25
2019-05-17T22:58:58.463Z,40.78
2019-05-17T23:04:36.799Z,54.40
2019-05-17T23:07:25.012Z,39.27
2019-05-17T23:10:13.333Z,39.65
2019-05-17T23:13:01.637Z,40.65
2019-05-17T23:19:08.603Z,39.42
2019-05-17T23:21:57.439Z,39.50
2019-05-17T23:24:46.055Z,39.90
2019-05-17T23:27:34.554Z,41.70
2019-05-17T23:30:23.135Z,47.48
2019-05-17T23:33:11.627Z,40.05
2019-05-17T23:36:00.642Z,39.78
2019-05-17T23:38:48.974Z,40.33
2019-05-17T23:41:37.247Z,40.60
2019-05-17T23:44:25.511Z,41.98
2019-05-17T23:47:14.026Z,39.98
2019-05-17T23:50:02.541Z,40.75
2019-05-17T23:52:50.764Z,41.15
2019-05-17T23:55:38.971Z,40.17
2019-05-17T23:58:27.562Z,40.25
